sensor_id;sensor_type;location;lat;lon;timestamp;P1;durP1;ratioP1;P2;durP2;ratioP2
3309;SDS011;1667;53.238;10.394;2023-04-03T00:01:27;4.97;;;2.17;;
3309;SDS011;1667;53.238;10.394;2023-04-03T00:06:26;6.90;;;2.30;;
3309;SDS011;1667;53.238;10.394;2023-04-03T00:11:25;2.10;;;1.83;;
3309;SDS011;1667;53.238;10.394;2023-04-03T00:16:23;5.20;;;1.93;;
3309;SDS011;1667;53.238;10.394;2023-04-03T00:21:23;7.17;;;2.00;;
3309;SDS011;1667;53.238;10.394;2023-04-03T00:26:22;3.80;;;2.00;;
3309;SDS011;1667;53.238;10.394;2023-04-03T00:31:21;3.53;;;2.10;;
3309;SDS011;1667;53.238;10.394;2023-04-03T00:36:22;2.43;;;1.90;;
3309;SDS011;1667;53.238;10.394;2023-04-03T00:41:21;4.63;;;2.10;;
3309;SDS011;1667;53.238;10.394;2023-04-03T00:46:19;4.03;;;2.10;;
3309;SDS011;1667;53.238;10.394;2023-04-03T00:51:20;5.97;;;1.53;;
3309;SDS011;1667;53.238;10.394;2023-04-03T00:56:23;3.47;;;1.57;;
3309;SDS011;1667;53.238;10.394;2023-04-03T01:01:25;4.20;;;2.07;;
3309;SDS011;1667;53.238;10.394;2023-04-03T01:06:28;2.40;;;1.87;;
3309;SDS011;1667;53.238;10.394;2023-04-03T01:11:35;3.83;;;1.87;;
3309;SDS011;1667;53.238;10.394;2023-04-03T01:16:33;1.70;;;1.60;;
3309;SDS011;1667;53.238;10.394;2023-04-03T01:27:01;2.37;;;1.73;;
3309;SDS011;1667;53.238;10.394;2023-04-03T01:32:04;2.97;;;1.90;;
3309;SDS011;1667;53.238;10.394;2023-04-03T01:37:03;8.63;;;1.80;;
3309;SDS011;1667;53.238;10.394;2023-04-03T01:42:02;3.77;;;1.87;;
3309;SDS011;1667;53.238;10.394;2023-04-03T01:47:07;8.17;;;2.50;;
3309;SDS011;1667;53.238;10.394;2023-04-03T01:52:08;2.80;;;2.10;;
3309;SDS011;1667;53.238;10.394;2023-04-03T01:57:07;3.57;;;2.00;;
3309;SDS011;1667;53.238;10.394;2023-04-03T02:02:06;3.73;;;2.20;;
3309;SDS011;1667;53.238;10.394;2023-04-03T02:07:06;4.77;;;1.90;;
3309;SDS011;1667;53.238;10.394;2023-04-03T02:12:04;5.27;;;2.40;;
3309;SDS011;1667;53.238;10.394;2023-04-03T02:17:03;1.90;;;1.70;;
3309;SDS011;1667;53.238;10.394;2023-04-03T02:22:06;4.20;;;2.30;;
3309;SDS011;1667;53.238;10.394;2023-04-03T02:27:05;1.83;;;1.63;;
3309;SDS011;1667;53.238;10.394;2023-04-03T02:32:03;4.67;;;1.90;;
3309;SDS011;1667;53.238;10.394;2023-04-03T02:37:04;1.93;;;1.70;;
3309;SDS011;1667;53.238;10.394;2023-04-03T02:42:04;3.67;;;2.20;;
3309;SDS011;1667;53.238;10.394;2023-04-03T02:47:04;3.50;;;2.17;;
3309;SDS011;1667;53.238;10.394;2023-04-03T02:52:03;3.47;;;1.87;;
3309;SDS011;1667;53.238;10.394;2023-04-03T02:57:02;2.40;;;2.07;;
3309;SDS011;1667;53.238;10.394;2023-04-03T03:02:02;3.47;;;1.70;;
3309;SDS011;1667;53.238;10.394;2023-04-03T03:07:01;8.50;;;2.20;;
3309;SDS011;1667;53.238;10.394;2023-04-03T03:12:00;2.93;;;1.97;;
3309;SDS011;1667;53.238;10.394;2023-04-03T03:16:59;5.00;;;2.37;;
3309;SDS011;1667;53.238;10.394;2023-04-03T03:21:59;6.43;;;2.53;;
3309;SDS011;1667;53.238;10.394;2023-04-03T03:26:57;6.73;;;2.30;;
3309;SDS011;1667;53.238;10.394;2023-04-03T03:31:56;6.53;;;2.50;;
3309;SDS011;1667;53.238;10.394;2023-04-03T03:36:54;3.70;;;2.53;;
3309;SDS011;1667;53.238;10.394;2023-04-03T03:41:54;3.67;;;2.90;;
3309;SDS011;1667;53.238;10.394;2023-04-03T03:46:53;3.83;;;2.80;;
3309;SDS011;1667;53.238;10.394;2023-04-03T03:51:52;5.73;;;2.13;;
3309;SDS011;1667;53.238;10.394;2023-04-03T03:56:51;10.03;;;3.50;;
3309;SDS011;1667;53.238;10.394;2023-04-03T04:01:53;9.23;;;5.83;;
3309;SDS011;1667;53.238;10.394;2023-04-03T04:06:52;6.40;;;4.17;;
3309;SDS011;1667;53.238;10.394;2023-04-03T04:11:51;7.83;;;3.23;;
3309;SDS011;1667;53.238;10.394;2023-04-03T04:16:49;2.47;;;2.20;;
3309;SDS011;1667;53.238;10.394;2023-04-03T04:21:54;3.50;;;2.50;;
3309;SDS011;1667;53.238;10.394;2023-04-03T04:26:53;3.70;;;2.30;;
3309;SDS011;1667;53.238;10.394;2023-04-03T04:31:54;5.50;;;3.33;;
3309;SDS011;1667;53.238;10.394;2023-04-03T04:36:54;7.20;;;2.37;;
3309;SDS011;1667;53.238;10.394;2023-04-03T04:41:54;6.50;;;2.47;;
3309;SDS011;1667;53.238;10.394;2023-04-03T04:46:55;12.07;;;3.43;;
3309;SDS011;1667;53.238;10.394;2023-04-03T04:51:54;4.40;;;2.33;;
3309;SDS011;1667;53.238;10.394;2023-04-03T04:56:58;6.47;;;4.03;;
3309;SDS011;1667;53.238;10.394;2023-04-03T05:01:58;4.67;;;2.27;;
3309;SDS011;1667;53.238;10.394;2023-04-03T05:06:59;9.07;;;4.03;;
3309;SDS011;1667;53.238;10.394;2023-04-03T05:12:00;6.83;;;3.40;;
3309;SDS011;1667;53.238;10.394;2023-04-03T05:17:06;6.73;;;3.40;;
3309;SDS011;1667;53.238;10.394;2023-04-03T05:22:10;5.67;;;3.20;;
3309;SDS011;1667;53.238;10.394;2023-04-03T05:27:08;7.63;;;3.03;;
3309;SDS011;1667;53.238;10.394;2023-04-03T05:32:11;6.53;;;3.60;;
3309;SDS011;1667;53.238;10.394;2023-04-03T05:37:11;6.90;;;4.20;;
3309;SDS011;1667;53.238;10.394;2023-04-03T05:42:11;9.20;;;3.97;;
3309;SDS011;1667;53.238;10.394;2023-04-03T05:47:10;18.73;;;4.50;;
3309;SDS011;1667;53.238;10.394;2023-04-03T05:52:11;5.80;;;3.03;;
3309;SDS011;1667;53.238;10.394;2023-04-03T05:57:19;5.07;;;2.70;;
3309;SDS011;1667;53.238;10.394;2023-04-03T06:02:19;7.87;;;3.90;;
3309;SDS011;1667;53.238;10.394;2023-04-03T06:07:23;7.03;;;3.23;;
3309;SDS011;1667;53.238;10.394;2023-04-03T06:12:24;6.67;;;3.03;;
3309;SDS011;1667;53.238;10.394;2023-04-03T06:17:26;5.00;;;2.13;;
3309;SDS011;1667;53.238;10.394;2023-04-03T06:22:26;3.27;;;2.30;;
3309;SDS011;1667;53.238;10.394;2023-04-03T06:27:26;4.17;;;2.30;;
3309;SDS011;1667;53.238;10.394;2023-04-03T06:32:25;4.73;;;2.20;;
3309;SDS011;1667;53.238;10.394;2023-04-03T06:37:26;6.57;;;2.33;;
3309;SDS011;1667;53.238;10.394;2023-04-03T06:42:25;4.03;;;2.20;;
3309;SDS011;1667;53.238;10.394;2023-04-03T06:47:30;5.73;;;3.17;;
3309;SDS011;1667;53.238;10.394;2023-04-03T06:52:30;9.20;;;3.23;;
3309;SDS011;1667;53.238;10.394;2023-04-03T06:57:29;2.87;;;2.03;;
3309;SDS011;1667;53.238;10.394;2023-04-03T07:02:28;6.73;;;2.43;;
3309;SDS011;1667;53.238;10.394;2023-04-03T07:07:26;4.47;;;3.00;;
3309;SDS011;1667;53.238;10.394;2023-04-03T07:12:26;2.80;;;1.40;;
3309;SDS011;1667;53.238;10.394;2023-04-03T07:17:25;6.77;;;1.80;;
3309;SDS011;1667;53.238;10.394;2023-04-03T07:22:23;3.97;;;1.33;;
3309;SDS011;1667;53.238;10.394;2023-04-03T07:27:21;6.30;;;1.20;;
3309;SDS011;1667;53.238;10.394;2023-04-03T07:32:21;2.97;;;1.40;;
3309;SDS011;1667;53.238;10.394;2023-04-03T07:37:20;8.43;;;1.47;;
3309;SDS011;1667;53.238;10.394;2023-04-03T07:42:19;3.43;;;1.40;;
3309;SDS011;1667;53.238;10.394;2023-04-03T07:47:18;3.90;;;1.47;;
3309;SDS011;1667;53.238;10.394;2023-04-03T07:52:18;2.73;;;1.33;;
3309;SDS011;1667;53.238;10.394;2023-04-03T07:57:16;3.33;;;1.53;;
3309;SDS011;1667;53.238;10.394;2023-04-03T08:02:15;1.00;;;0.93;;
3309;SDS011;1667;53.238;10.394;2023-04-03T08:07:14;2.83;;;1.20;;
3309;SDS011;1667;53.238;10.394;2023-04-03T08:12:13;1.63;;;1.30;;
3309;SDS011;1667;53.238;10.394;2023-04-03T08:17:12;1.43;;;1.20;;
3309;SDS011;1667;53.238;10.394;2023-04-03T08:22:10;5.87;;;1.33;;
3309;SDS011;1667;53.238;10.394;2023-04-03T08:27:09;2.33;;;1.70;;
3309;SDS011;1667;53.238;10.394;2023-04-03T08:32:09;1.40;;;1.17;;
3309;SDS011;1667;53.238;10.394;2023-04-03T08:37:07;3.37;;;1.17;;
3309;SDS011;1667;53.238;10.394;2023-04-03T08:42:10;2.80;;;1.20;;
3309;SDS011;1667;53.238;10.394;2023-04-03T08:47:20;2.97;;;1.10;;
3309;SDS011;1667;53.238;10.394;2023-04-03T08:52:25;3.80;;;1.47;;
3309;SDS011;1667;53.238;10.394;2023-04-03T08:57:33;1.23;;;1.03;;
3309;SDS011;1667;53.238;10.394;2023-04-03T09:02:38;2.50;;;1.17;;
3309;SDS011;1667;53.238;10.394;2023-04-03T09:07:42;2.30;;;1.00;;
3309;SDS011;1667;53.238;10.394;2023-04-03T09:12:46;1.43;;;1.13;;
3309;SDS011;1667;53.238;10.394;2023-04-03T09:17:59;2.87;;;1.13;;
3309;SDS011;1667;53.238;10.394;2023-04-03T09:23:01;3.93;;;1.07;;
3309;SDS011;1667;53.238;10.394;2023-04-03T09:28:12;2.87;;;1.03;;
3309;SDS011;1667;53.238;10.394;2023-04-03T09:33:12;4.33;;;0.90;;
3309;SDS011;1667;53.238;10.394;2023-04-03T09:38:16;1.47;;;1.03;;
3309;SDS011;1667;53.238;10.394;2023-04-03T09:43:23;1.97;;;1.10;;
3309;SDS011;1667;53.238;10.394;2023-04-03T09:48:25;1.17;;;1.00;;
3309;SDS011;1667;53.238;10.394;2023-04-03T09:53:26;5.43;;;1.30;;
3309;SDS011;1667;53.238;10.394;2023-04-03T09:58:27;1.83;;;1.17;;
3309;SDS011;1667;53.238;10.394;2023-04-03T10:03:44;1.27;;;1.17;;
3309;SDS011;1667;53.238;10.394;2023-04-03T10:08:43;2.53;;;1.07;;
3309;SDS011;1667;53.238;10.394;2023-04-03T10:13:56;2.83;;;0.90;;
3309;SDS011;1667;53.238;10.394;2023-04-03T10:19:00;1.30;;;1.00;;
3309;SDS011;1667;53.238;10.394;2023-04-03T10:24:10;2.50;;;1.00;;
3309;SDS011;1667;53.238;10.394;2023-04-03T10:29:16;1.30;;;1.20;;
3309;SDS011;1667;53.238;10.394;2023-04-03T10:34:27;1.00;;;1.00;;
3309;SDS011;1667;53.238;10.394;2023-04-03T10:39:30;5.30;;;1.43;;
3309;SDS011;1667;53.238;10.394;2023-04-03T10:44:36;3.80;;;0.80;;
3309;SDS011;1667;53.238;10.394;2023-04-03T10:49:44;2.77;;;1.30;;
3309;SDS011;1667;53.238;10.394;2023-04-03T10:54:58;1.40;;;0.97;;
3309;SDS011;1667;53.238;10.394;2023-04-03T11:00:04;2.30;;;1.00;;
3309;SDS011;1667;53.238;10.394;2023-04-03T11:05:08;0.80;;;0.80;;
3309;SDS011;1667;53.238;10.394;2023-04-03T11:10:17;0.93;;;0.83;;
3309;SDS011;1667;53.238;10.394;2023-04-03T11:15:29;2.37;;;1.20;;
3309;SDS011;1667;53.238;10.394;2023-04-03T11:20:31;4.27;;;1.30;;
3309;SDS011;1667;53.238;10.394;2023-04-03T11:25:31;2.70;;;1.10;;
3309;SDS011;1667;53.238;10.394;2023-04-03T11:30:33;2.20;;;1.23;;
3309;SDS011;1667;53.238;10.394;2023-04-03T11:35:43;2.20;;;1.17;;
3309;SDS011;1667;53.238;10.394;2023-04-03T11:40:44;1.13;;;1.03;;
3309;SDS011;1667;53.238;10.394;2023-04-03T11:45:54;4.33;;;0.90;;
3309;SDS011;1667;53.238;10.394;2023-04-03T11:50:59;2.10;;;1.13;;
3309;SDS011;1667;53.238;10.394;2023-04-03T11:56:02;5.80;;;1.20;;
3309;SDS011;1667;53.238;10.394;2023-04-03T12:12:24;2.30;;;1.40;;
3309;SDS011;1667;53.238;10.394;2023-04-03T12:17:26;1.27;;;1.00;;
3309;SDS011;1667;53.238;10.394;2023-04-03T12:22:27;3.30;;;1.33;;
3309;SDS011;1667;53.238;10.394;2023-04-03T12:27:27;3.00;;;1.40;;
3309;SDS011;1667;53.238;10.394;2023-04-03T12:32:48;3.53;;;1.00;;
3309;SDS011;1667;53.238;10.394;2023-04-03T12:38:30;1.40;;;1.30;;
3309;SDS011;1667;53.238;10.394;2023-04-03T12:43:56;1.33;;;1.07;;
3309;SDS011;1667;53.238;10.394;2023-04-03T12:49:12;2.13;;;1.23;;
3309;SDS011;1667;53.238;10.394;2023-04-03T12:54:23;2.20;;;1.20;;
3309;SDS011;1667;53.238;10.394;2023-04-03T12:59:27;1.13;;;1.03;;
3309;SDS011;1667;53.238;10.394;2023-04-03T13:04:25;1.77;;;1.23;;
3309;SDS011;1667;53.238;10.394;2023-04-03T13:09:26;3.27;;;1.57;;
3309;SDS011;1667;53.238;10.394;2023-04-03T13:14:27;1.77;;;1.20;;
3309;SDS011;1667;53.238;10.394;2023-04-03T13:19:27;2.80;;;1.03;;
3309;SDS011;1667;53.238;10.394;2023-04-03T13:24:28;1.93;;;1.00;;
3309;SDS011;1667;53.238;10.394;2023-04-03T13:29:29;1.23;;;1.10;;
3309;SDS011;1667;53.238;10.394;2023-04-03T13:34:29;2.63;;;1.17;;
3309;SDS011;1667;53.238;10.394;2023-04-03T13:39:35;4.10;;;1.00;;
3309;SDS011;1667;53.238;10.394;2023-04-03T13:44:35;6.20;;;1.20;;
3309;SDS011;1667;53.238;10.394;2023-04-03T13:49:36;5.53;;;1.47;;
3309;SDS011;1667;53.238;10.394;2023-04-03T13:54:38;3.20;;;1.30;;
3309;SDS011;1667;53.238;10.394;2023-04-03T13:59:37;4.17;;;1.37;;
3309;SDS011;1667;53.238;10.394;2023-04-03T14:04:44;1.80;;;1.00;;
3309;SDS011;1667;53.238;10.394;2023-04-03T14:09:46;1.00;;;0.80;;
3309;SDS011;1667;53.238;10.394;2023-04-03T14:14:46;1.47;;;1.10;;
3309;SDS011;1667;53.238;10.394;2023-04-03T14:19:44;1.10;;;1.00;;
3309;SDS011;1667;53.238;10.394;2023-04-03T14:24:45;1.90;;;1.00;;
3309;SDS011;1667;53.238;10.394;2023-04-03T14:29:46;1.73;;;0.80;;
3309;SDS011;1667;53.238;10.394;2023-04-03T14:34:46;1.60;;;0.90;;
3309;SDS011;1667;53.238;10.394;2023-04-03T14:39:45;1.27;;;0.90;;
3309;SDS011;1667;53.238;10.394;2023-04-03T14:44:46;1.83;;;0.80;;
3309;SDS011;1667;53.238;10.394;2023-04-03T14:49:45;2.30;;;1.00;;
3309;SDS011;1667;53.238;10.394;2023-04-03T14:54:43;2.50;;;1.13;;
3309;SDS011;1667;53.238;10.394;2023-04-03T14:59:43;6.53;;;0.93;;
3309;SDS011;1667;53.238;10.394;2023-04-03T15:04:43;1.30;;;0.87;;
3309;SDS011;1667;53.238;10.394;2023-04-03T15:09:41;1.20;;;1.10;;
3309;SDS011;1667;53.238;10.394;2023-04-03T15:14:40;3.00;;;1.20;;
3309;SDS011;1667;53.238;10.394;2023-04-03T15:19:50;2.90;;;1.40;;
3309;SDS011;1667;53.238;10.394;2023-04-03T15:24:48;1.47;;;1.00;;
3309;SDS011;1667;53.238;10.394;2023-04-03T15:29:47;1.60;;;1.10;;
3309;SDS011;1667;53.238;10.394;2023-04-03T15:34:45;1.83;;;0.80;;
3309;SDS011;1667;53.238;10.394;2023-04-03T15:39:45;1.23;;;1.13;;
3309;SDS011;1667;53.238;10.394;2023-04-03T15:44:44;1.43;;;0.80;;
3309;SDS011;1667;53.238;10.394;2023-04-03T15:49:42;1.63;;;1.10;;
3309;SDS011;1667;53.238;10.394;2023-04-03T15:54:41;1.60;;;1.20;;
3309;SDS011;1667;53.238;10.394;2023-04-03T15:59:41;0.90;;;0.90;;
3309;SDS011;1667;53.238;10.394;2023-04-03T16:04:39;1.27;;;1.00;;
3309;SDS011;1667;53.238;10.394;2023-04-03T16:09:38;5.03;;;1.00;;
3309;SDS011;1667;53.238;10.394;2023-04-03T16:14:37;3.97;;;1.00;;
3309;SDS011;1667;53.238;10.394;2023-04-03T16:19:37;4.30;;;1.13;;
3309;SDS011;1667;53.238;10.394;2023-04-03T16:24:35;1.90;;;1.27;;
3309;SDS011;1667;53.238;10.394;2023-04-03T16:29:34;1.43;;;1.10;;
3309;SDS011;1667;53.238;10.394;2023-04-03T16:34:33;3.20;;;1.00;;
3309;SDS011;1667;53.238;10.394;2023-04-03T16:39:33;3.03;;;1.30;;
3309;SDS011;1667;53.238;10.394;2023-04-03T16:44:31;1.33;;;1.00;;
3309;SDS011;1667;53.238;10.394;2023-04-03T16:49:30;3.10;;;1.70;;
3309;SDS011;1667;53.238;10.394;2023-04-03T16:54:30;1.57;;;1.20;;
3309;SDS011;1667;53.238;10.394;2023-04-03T16:59:31;2.57;;;1.00;;
3309;SDS011;1667;53.238;10.394;2023-04-03T17:04:29;1.60;;;1.00;;
3309;SDS011;1667;53.238;10.394;2023-04-03T17:09:28;3.10;;;1.53;;
3309;SDS011;1667;53.238;10.394;2023-04-03T17:14:28;1.83;;;1.53;;
3309;SDS011;1667;53.238;10.394;2023-04-03T17:19:27;3.87;;;1.60;;
3309;SDS011;1667;53.238;10.394;2023-04-03T17:24:26;4.70;;;1.30;;
3309;SDS011;1667;53.238;10.394;2023-04-03T17:29:25;6.70;;;1.70;;
3309;SDS011;1667;53.238;10.394;2023-04-03T17:34:25;2.90;;;1.60;;
3309;SDS011;1667;53.238;10.394;2023-04-03T17:39:24;2.40;;;1.50;;
3309;SDS011;1667;53.238;10.394;2023-04-03T17:44:23;6.17;;;1.80;;
3309;SDS011;1667;53.238;10.394;2023-04-03T17:49:23;2.37;;;1.50;;
3309;SDS011;1667;53.238;10.394;2023-04-03T17:54:22;5.00;;;1.30;;
3309;SDS011;1667;53.238;10.394;2023-04-03T17:59:20;2.90;;;1.63;;
3309;SDS011;1667;53.238;10.394;2023-04-03T18:04:18;3.03;;;1.60;;
3309;SDS011;1667;53.238;10.394;2023-04-03T18:09:18;2.80;;;1.90;;
3309;SDS011;1667;53.238;10.394;2023-04-03T18:14:20;3.97;;;2.10;;
3309;SDS011;1667;53.238;10.394;2023-04-03T18:19:22;3.43;;;1.40;;
3309;SDS011;1667;53.238;10.394;2023-04-03T18:24:25;1.70;;;1.60;;
3309;SDS011;1667;53.238;10.394;2023-04-03T18:29:24;2.73;;;1.40;;
3309;SDS011;1667;53.238;10.394;2023-04-03T18:34:25;1.50;;;1.40;;
3309;SDS011;1667;53.238;10.394;2023-04-03T18:39:25;2.17;;;1.30;;
3309;SDS011;1667;53.238;10.394;2023-04-03T18:44:24;2.77;;;2.00;;
3309;SDS011;1667;53.238;10.394;2023-04-03T18:49:24;3.50;;;1.60;;
3309;SDS011;1667;53.238;10.394;2023-04-03T18:54:25;2.93;;;1.57;;
3309;SDS011;1667;53.238;10.394;2023-04-03T18:59:24;2.30;;;1.77;;
3309;SDS011;1667;53.238;10.394;2023-04-03T19:04:23;3.63;;;1.90;;
3309;SDS011;1667;53.238;10.394;2023-04-03T19:09:23;9.10;;;1.50;;
3309;SDS011;1667;53.238;10.394;2023-04-03T19:14:23;2.93;;;1.53;;
3309;SDS011;1667;53.238;10.394;2023-04-03T19:19:22;2.17;;;2.00;;
3309;SDS011;1667;53.238;10.394;2023-04-03T19:24:20;2.07;;;1.80;;
3309;SDS011;1667;53.238;10.394;2023-04-03T19:29:20;2.87;;;2.50;;
3309;SDS011;1667;53.238;10.394;2023-04-03T19:34:19;2.30;;;1.90;;
3309;SDS011;1667;53.238;10.394;2023-04-03T19:39:17;4.70;;;2.40;;
3309;SDS011;1667;53.238;10.394;2023-04-03T19:44:16;8.17;;;2.50;;
3309;SDS011;1667;53.238;10.394;2023-04-03T19:49:16;2.97;;;2.30;;
3309;SDS011;1667;53.238;10.394;2023-04-03T19:54:15;5.50;;;3.40;;
3309;SDS011;1667;53.238;10.394;2023-04-03T19:59:13;6.13;;;2.90;;
3309;SDS011;1667;53.238;10.394;2023-04-03T20:04:13;7.37;;;3.80;;
3309;SDS011;1667;53.238;10.394;2023-04-03T20:09:13;3.40;;;2.73;;
3309;SDS011;1667;53.238;10.394;2023-04-03T20:14:13;2.93;;;2.60;;
3309;SDS011;1667;53.238;10.394;2023-04-03T20:19:13;4.47;;;2.23;;
3309;SDS011;1667;53.238;10.394;2023-04-03T20:24:13;4.40;;;2.23;;
3309;SDS011;1667;53.238;10.394;2023-04-03T20:29:13;3.30;;;2.03;;
3309;SDS011;1667;53.238;10.394;2023-04-03T20:34:12;2.60;;;1.80;;
3309;SDS011;1667;53.238;10.394;2023-04-03T20:39:11;5.23;;;1.77;;
3309;SDS011;1667;53.238;10.394;2023-04-03T20:44:12;4.63;;;2.30;;
3309;SDS011;1667;53.238;10.394;2023-04-03T20:49:14;5.17;;;2.27;;
3309;SDS011;1667;53.238;10.394;2023-04-03T20:54:14;3.50;;;2.77;;
3309;SDS011;1667;53.238;10.394;2023-04-03T20:59:13;3.87;;;2.40;;
3309;SDS011;1667;53.238;10.394;2023-04-03T21:04:15;3.90;;;2.30;;
3309;SDS011;1667;53.238;10.394;2023-04-03T21:20:31;5.37;;;2.80;;
3309;SDS011;1667;53.238;10.394;2023-04-03T21:25:30;4.67;;;3.20;;
3309;SDS011;1667;53.238;10.394;2023-04-03T21:30:28;2.67;;;2.30;;
3309;SDS011;1667;53.238;10.394;2023-04-03T21:35:27;5.87;;;2.83;;
3309;SDS011;1667;53.238;10.394;2023-04-03T21:40:27;3.20;;;2.77;;
3309;SDS011;1667;53.238;10.394;2023-04-03T21:45:27;2.50;;;1.93;;
3309;SDS011;1667;53.238;10.394;2023-04-03T21:50:25;4.40;;;2.23;;
3309;SDS011;1667;53.238;10.394;2023-04-03T21:55:24;2.40;;;1.70;;
3309;SDS011;1667;53.238;10.394;2023-04-03T22:00:24;5.17;;;2.20;;
3309;SDS011;1667;53.238;10.394;2023-04-03T22:05:23;7.83;;;1.67;;
3309;SDS011;1667;53.238;10.394;2023-04-03T22:10:22;2.90;;;1.50;;
3309;SDS011;1667;53.238;10.394;2023-04-03T22:15:20;1.60;;;1.40;;
3309;SDS011;1667;53.238;10.394;2023-04-03T22:20:20;5.83;;;1.77;;
3309;SDS011;1667;53.238;10.394;2023-04-03T22:25:19;7.03;;;1.90;;
3309;SDS011;1667;53.238;10.394;2023-04-03T22:30:17;1.87;;;1.40;;
3309;SDS011;1667;53.238;10.394;2023-04-03T22:35:16;2.50;;;1.70;;
3309;SDS011;1667;53.238;10.394;2023-04-03T22:40:16;3.73;;;1.50;;
3309;SDS011;1667;53.238;10.394;2023-04-03T22:45:14;3.00;;;1.30;;
3309;SDS011;1667;53.238;10.394;2023-04-03T22:50:13;4.43;;;1.40;;
3309;SDS011;1667;53.238;10.394;2023-04-03T22:55:11;3.27;;;1.43;;
3309;SDS011;1667;53.238;10.394;2023-04-03T23:00:16;3.80;;;1.60;;
3309;SDS011;1667;53.238;10.394;2023-04-03T23:05:16;3.23;;;1.30;;
3309;SDS011;1667;53.238;10.394;2023-04-03T23:10:14;1.87;;;1.30;;
3309;SDS011;1667;53.238;10.394;2023-04-03T23:15:14;7.70;;;2.00;;
3309;SDS011;1667;53.238;10.394;2023-04-03T23:26:29;2.13;;;1.40;;
3309;SDS011;1667;53.238;10.394;2023-04-03T23:31:27;2.43;;;1.13;;
3309;SDS011;1667;53.238;10.394;2023-04-03T23:36:26;3.13;;;1.53;;
3309;SDS011;1667;53.238;10.394;2023-04-03T23:41:24;1.50;;;1.30;;
3309;SDS011;1667;53.238;10.394;2023-04-03T23:46:24;2.50;;;1.20;;
3309;SDS011;1667;53.238;10.394;2023-04-03T23:51:22;1.70;;;1.10;;
3309;SDS011;1667;53.238;10.394;2023-04-03T23:56:21;4.10;;;1.40;;
